Time,TemperatureF,DewpointF,PressureIn,WindDirection,WindDirectionDegrees,WindSpeedMPH,WindSpeedGustMPH,Humidity,HourlyPrecipIn,Conditions,Clouds,dailyrainin,SoftwareType,DateUTC
2013-08-29 00:01:00,73.0,70.6,29.65,South,180,0.0,0.0,92,0.00,,---,0.00,VWS V14.00,2013-08-29 04:01:00,
2013-08-29 00:02:00,73.0,70.6,29.65,South,180,0.0,0.0,92,0.00,,---,0.00,VWS V14.00,2013-08-29 04:02:00,
2013-08-29 00:03:00,73.0,70.3,29.65,South,180,0.0,0.0,91,0.00,,---,0.00,VWS V14.00,2013-08-29 04:03:00,
2013-08-29 00:04:00,73.0,70.3,29.65,South,180,0.0,0.0,91,0.00,,---,0.00,VWS V14.00,2013-08-29 04:04:00,
2013-08-29 00:09:00,73.2,70.4,29.65,South,180,0.0,0.0,91,0.00,,---,0.00,VWS V14.00,2013-08-29 04:09:00,
2013-08-29 00:11:00,73.2,70.4,29.65,South,180,0.0,0.0,91,0.00,,---,0.00,VWS V14.00,2013-08-29 04:11:00,
2013-08-29 00:17:00,73.2,70.8,29.65,South,180,0.0,0.0,92,0.00,,---,0.00,VWS V14.00,2013-08-29 04:17:00,
2013-08-29 00:22:00,73.0,70.3,29.65,South,180,0.0,0.0,91,0.00,,---,0.00,VWS V14.00,2013-08-29 04:22:00,
2013-08-29 00:28:00,72.9,70.1,29.65,South,180,0.0,0.0,91,0.00,,---,0.00,VWS V14.00,2013-08-29 04:28:00,
2013-08-29 00:33:00,72.9,70.1,29.65,SE,135,1.3,1.3,91,0.00,,---,0.00,VWS V14.00,2013-08-29 04:33:00,
2013-08-29 00:38:00,72.7,70.2,29.65,ESE,112,0.0,2.0,92,0.00,,---,0.00,VWS V14.00,2013-08-29 04:38:00,
2013-08-29 00:43:00,72.5,70.1,29.65,ESE,112,0.0,0.0,92,0.00,,---,0.00,VWS V14.00,2013-08-29 04:43:00,
2013-08-29 00:48:00,72.5,69.7,29.65,ESE,112,0.0,0.0,91,0.00,,---,0.00,VWS V14.00,2013-08-29 04:48:00,
2013-08-29 00:53:00,72.5,69.7,29.65,ESE,112,0.0,0.0,91,0.00,,---,0.00,VWS V14.00,2013-08-29 04:53:00,
2013-08-29 00:58:00,72.3,69.6,29.65,ESE,112,0.0,0.0,91,0.00,,---,0.00,VWS V14.00,2013-08-29 04:58:00,
2013-08-29 01:04:00,72.0,69.5,29.65,ESE,112,0.0,0.9,92,0.00,,---,0.00,VWS V14.00,2013-08-29 05:04:00,
2013-08-29 01:09:00,72.0,69.5,29.65,ENE,68,0.9,1.3,92,0.00,,---,0.00,VWS V14.00,2013-08-29 05:09:00,
2013-08-29 01:15:00,72.0,69.5,29.65,ENE,68,0.0,0.0,92,0.00,,---,0.00,VWS V14.00,2013-08-29 05:15:00,
2013-08-29 01:21:00,71.8,69.3,29.65,ENE,68,0.0,0.0,92,0.00,,---,0.00,VWS V14.00,2013-08-29 05:21:00,
2013-08-29 01:26:00,71.6,69.2,29.65,ENE,68,0.0,0.9,92,0.00,,---,0.00,VWS V14.00,2013-08-29 05:26:00,
2013-08-29 01:31:00,71.6,69.2,29.65,ENE,68,0.0,0.0,92,0.00,,---,0.00,VWS V14.00,2013-08-29 05:31:00,
2013-08-29 01:36:00,71.6,69.2,29.65,ENE,68,0.0,0.0,92,0.00,,---,0.00,VWS V14.00,2013-08-29 05:36:00,
2013-08-29 01:41:00,71.4,69.0,29.65,ENE,68,0.0,0.0,92,0.00,,---,0.00,VWS V14.00,2013-08-29 05:41:00,
2013-08-29 01:47:00,71.4,69.3,29.65,ENE,68,0.0,0.0,93,0.00,,---,0.00,VWS V14.00,2013-08-29 05:47:00,
2013-08-29 01:52:00,71.2,69.1,29.65,East,90,0.0,0.0,93,0.00,,---,0.00,VWS V14.00,2013-08-29 05:52:00,
2013-08-29 01:58:00,71.2,69.1,29.65,ESE,112,0.0,0.9,93,0.00,,---,0.00,VWS V14.00,2013-08-29 05:58:00,
2013-08-29 02:04:00,71.2,69.1,29.65,East,90,0.0,0.0,93,0.00,,---,0.00,VWS V14.00,2013-08-29 06:04:00,
2013-08-29 02:10:00,71.2,69.1,29.65,East,90,1.3,1.3,93,0.00,,---,0.00,VWS V14.00,2013-08-29 06:10:00,
2013-08-29 02:16:00,71.2,69.1,29.65,ESE,112,0.0,1.6,93,0.00,,---,0.00,VWS V14.00,2013-08-29 06:16:00,
2013-08-29 02:23:00,71.2,69.1,29.65,ESE,112,0.0,0.0,93,0.00,,---,0.00,VWS V14.00,2013-08-29 06:23:00,
2013-08-29 02:28:00,71.1,68.9,29.65,ESE,112,0.0,0.0,93,0.00,,---,0.00,VWS V14.00,2013-08-29 06:28:00,
2013-08-29 02:33:00,71.1,68.9,29.68,ESE,112,0.0,0.0,93,0.00,,---,0.00,VWS V14.00,2013-08-29 06:33:00,
2013-08-29 02:38:00,70.9,68.8,29.68,ESE,112,0.0,0.0,93,0.00,,---,0.00,VWS V14.00,2013-08-29 06:38:00,
2013-08-29 02:44:00,70.9,68.8,29.68,ENE,68,2.2,2.2,93,0.00,,---,0.00,VWS V14.00,2013-08-29 06:44:00,
2013-08-29 02:49:00,70.7,68.6,29.68,ENE,68,0.0,0.0,93,0.00,,---,0.00,VWS V14.00,2013-08-29 06:49:00,
2013-08-29 02:54:00,70.7,68.6,29.68,ENE,68,0.9,1.1,93,0.00,,---,0.00,VWS V14.00,2013-08-29 06:54:00,
2013-08-29 03:00:00,70.7,68.6,29.68,ENE,68,1.3,1.3,93,0.00,,---,0.00,VWS V14.00,2013-08-29 07:00:00,
2013-08-29 03:05:00,70.7,68.6,29.68,ENE,68,0.0,0.0,93,0.00,,---,0.00,VWS V14.00,2013-08-29 07:05:00,
2013-08-29 03:10:00,70.7,68.6,29.68,ENE,68,0.0,0.0,93,0.00,,---,0.00,VWS V14.00,2013-08-29 07:10:00,
2013-08-29 03:15:00,70.5,68.4,29.68,ENE,68,0.0,0.0,93,0.00,,---,0.00,VWS V14.00,2013-08-29 07:15:00,
2013-08-29 03:21:00,70.5,68.4,29.68,ENE,68,2.0,2.0,93,0.00,,---,0.00,VWS V14.00,2013-08-29 07:21:00,
2013-08-29 03:26:00,70.5,68.4,29.68,NE,45,2.0,2.0,93,0.00,,---,0.00,VWS V14.00,2013-08-29 07:26:00,
2013-08-29 03:32:00,70.5,68.4,29.68,ENE,68,1.6,1.6,93,0.00,,---,0.00,VWS V14.00,2013-08-29 07:32:00,
2013-08-29 03:37:00,70.5,68.4,29.68,ENE,68,0.0,0.0,93,0.00,,---,0.00,VWS V14.00,2013-08-29 07:37:00,
2013-08-29 03:42:00,70.7,68.9,29.68,ENE,68,0.0,0.0,94,0.00,,---,0.00,VWS V14.00,2013-08-29 07:42:00,
2013-08-29 03:48:00,70.9,69.1,29.68,ENE,68,0.0,0.0,94,0.00,,---,0.00,VWS V14.00,2013-08-29 07:48:00,
2013-08-29 03:53:00,71.1,69.2,29.68,ENE,68,2.9,2.9,94,0.00,,---,0.00,VWS V14.00,2013-08-29 07:53:00,
2013-08-29 03:59:00,71.2,69.7,29.68,ENE,68,0.9,2.2,95,0.00,,---,0.00,VWS V14.00,2013-08-29 07:59:00,
2013-08-29 04:04:00,71.4,69.9,29.68,WNW,292,2.0,2.0,95,0.00,,---,0.00,VWS V14.00,2013-08-29 08:04:00,
2013-08-29 04:09:00,71.4,69.9,29.68,NNE,22,2.5,2.5,95,0.00,,---,0.00,VWS V14.00,2013-08-29 08:09:00,
2013-08-29 04:15:00,71.4,69.9,29.68,SSE,158,2.2,7.6,95,0.00,,---,0.00,VWS V14.00,2013-08-29 08:15:00,
2013-08-29 04:20:00,71.4,69.9,29.68,NE,45,4.0,4.0,95,0.00,,---,0.00,VWS V14.00,2013-08-29 08:20:00,
2013-08-29 04:26:00,71.4,69.9,29.68,ENE,68,3.4,3.4,95,0.00,,---,0.00,VWS V14.00,2013-08-29 08:26:00,
2013-08-29 04:32:00,71.6,69.8,29.68,ENE,68,2.9,2.9,94,0.00,,---,0.00,VWS V14.00,2013-08-29 08:32:00,
2013-08-29 04:37:00,71.6,69.8,29.68,SSE,158,1.6,1.6,94,0.00,,---,0.00,VWS V14.00,2013-08-29 08:37:00,
2013-08-29 04:43:00,71.6,69.8,29.68,South,180,0.9,0.9,94,0.00,,---,0.00,VWS V14.00,2013-08-29 08:43:00,
2013-08-29 04:48:00,71.6,69.8,29.68,East,90,4.3,4.3,94,0.00,,---,0.00,VWS V14.00,2013-08-29 08:48:00,
2013-08-29 04:53:00,71.8,70.0,29.68,ESE,112,2.7,2.7,94,0.00,,---,0.00,VWS V14.00,2013-08-29 08:53:00,
2013-08-29 04:59:00,71.8,69.7,29.68,ESE,112,0.0,3.4,93,0.00,,---,0.00,VWS V14.00,2013-08-29 08:59:00,
2013-08-29 05:04:00,71.8,69.7,29.68,ESE,112,0.0,1.1,93,0.00,,---,0.00,VWS V14.00,2013-08-29 09:04:00,
2013-08-29 05:10:00,72.0,69.8,29.68,NE,45,0.0,3.1,93,0.00,,---,0.00,VWS V14.00,2013-08-29 09:10:00,
2013-08-29 05:16:00,72.0,69.8,29.68,ESE,112,0.0,0.9,93,0.00,,---,0.00,VWS V14.00,2013-08-29 09:16:00,
2013-08-29 05:21:00,72.0,69.8,29.68,ESE,112,0.0,0.0,93,0.00,,---,0.00,VWS V14.00,2013-08-29 09:21:00,
2013-08-29 05:28:00,72.0,69.8,29.68,SSE,158,2.0,2.0,93,0.00,,---,0.00,VWS V14.00,2013-08-29 09:28:00,
2013-08-29 05:33:00,71.8,69.7,29.68,ENE,68,0.9,0.9,93,0.00,,---,0.00,VWS V14.00,2013-08-29 09:33:00,
2013-08-29 05:39:00,71.6,69.5,29.68,ESE,112,0.0,3.1,93,0.00,,---,0.00,VWS V14.00,2013-08-29 09:39:00,
2013-08-29 05:44:00,71.6,69.5,29.68,ENE,68,0.0,1.6,93,0.00,,---,0.00,VWS V14.00,2013-08-29 09:44:00,
2013-08-29 05:49:00,71.6,69.5,29.71,ENE,68,2.7,2.7,93,0.00,,---,0.00,VWS V14.00,2013-08-29 09:49:00,
2013-08-29 05:55:00,71.8,69.7,29.71,NNE,22,1.6,2.0,93,0.00,,---,0.00,VWS V14.00,2013-08-29 09:55:00,
2013-08-29 06:00:00,71.8,69.7,29.71,WSW,248,0.9,0.9,93,0.00,,---,0.00,VWS V14.00,2013-08-29 10:00:00,
2013-08-29 06:05:00,72.0,69.8,29.71,WNW,292,0.0,0.0,93,0.00,,---,0.00,VWS V14.00,2013-08-29 10:05:00,
2013-08-29 06:11:00,72.0,69.8,29.71,ENE,68,0.0,1.1,93,0.00,,---,0.00,VWS V14.00,2013-08-29 10:11:00,
2013-08-29 06:16:00,72.0,69.8,29.71,ESE,112,2.9,2.9,93,0.00,,---,0.00,VWS V14.00,2013-08-29 10:16:00,
2013-08-29 06:22:00,72.1,70.3,29.71,NE,45,0.0,0.0,94,0.00,,---,0.00,VWS V14.00,2013-08-29 10:22:00,
2013-08-29 06:27:00,72.1,70.3,29.71,ESE,112,1.1,1.1,94,0.00,,---,0.00,VWS V14.00,2013-08-29 10:27:00,
2013-08-29 06:33:00,72.1,70.0,29.71,SE,135,1.1,1.1,93,0.00,,---,0.00,VWS V14.00,2013-08-29 10:33:00,
2013-08-29 06:39:00,72.1,70.0,29.71,South,180,3.1,3.1,93,0.00,,---,0.00,VWS V14.00,2013-08-29 10:39:00,
2013-08-29 06:45:00,72.3,70.2,29.71,SSE,158,4.0,4.0,93,0.00,,---,0.00,VWS V14.00,2013-08-29 10:45:00,
2013-08-29 06:50:00,72.3,70.2,29.71,NNE,22,0.0,1.1,93,0.00,,---,0.00,VWS V14.00,2013-08-29 10:50:00,
2013-08-29 06:55:00,72.3,70.2,29.71,SSW,202,2.9,2.9,93,0.00,,---,0.00,VWS V14.00,2013-08-29 10:55:00,
2013-08-29 07:00:00,72.3,70.2,29.74,NNE,22,2.5,2.5,93,0.00,,---,0.00,VWS V14.00,2013-08-29 11:00:00,
2013-08-29 07:05:00,72.3,70.2,29.74,ESE,112,3.6,3.6,93,0.00,,---,0.00,VWS V14.00,2013-08-29 11:05:00,
2013-08-29 07:10:00,72.1,70.0,29.74,ESE,112,4.0,6.0,93,0.00,,---,0.00,VWS V14.00,2013-08-29 11:10:00,
2013-08-29 07:16:00,72.1,70.0,29.74,WNW,292,0.0,2.0,93,0.00,,---,0.00,VWS V14.00,2013-08-29 11:16:00,
2013-08-29 07:21:00,72.1,70.0,29.74,ENE,68,2.9,2.9,93,0.00,,---,0.00,VWS V14.00,2013-08-29 11:21:00,
2013-08-29 07:27:00,72.1,69.7,29.74,NNE,22,1.6,2.9,92,0.00,,---,0.00,VWS V14.00,2013-08-29 11:27:00,
2013-08-29 07:32:00,72.1,69.7,29.74,NNE,22,2.5,2.5,92,0.00,,---,0.00,VWS V14.00,2013-08-29 11:32:00,
2013-08-29 07:38:00,72.1,69.7,29.74,ENE,68,3.1,3.1,92,0.00,,---,0.00,VWS V14.00,2013-08-29 11:38:00,
2013-08-29 07:43:00,72.1,69.7,29.74,SSE,158,2.0,2.7,92,0.00,,---,0.00,VWS V14.00,2013-08-29 11:43:00,
2013-08-29 07:49:00,72.1,69.4,29.74,SSE,158,2.0,2.0,91,0.00,,---,0.00,VWS V14.00,2013-08-29 11:49:00,
2013-08-29 07:55:00,72.3,69.6,29.74,East,90,2.2,2.2,91,0.00,,---,0.00,VWS V14.00,2013-08-29 11:55:00,
2013-08-29 08:01:00,72.3,69.6,29.74,ESE,112,6.3,6.3,91,0.00,,---,0.00,VWS V14.00,2013-08-29 12:01:00,
2013-08-29 08:06:00,72.1,69.4,29.74,ENE,68,0.0,1.3,91,0.00,,---,0.00,VWS V14.00,2013-08-29 12:06:00,
2013-08-29 08:11:00,72.1,69.1,29.74,ESE,112,5.4,5.4,90,0.00,,---,0.00,VWS V14.00,2013-08-29 12:11:00,
2013-08-29 08:17:00,72.1,69.1,29.74,East,90,1.3,3.1,90,0.00,,---,0.00,VWS V14.00,2013-08-29 12:17:00,
2013-08-29 08:22:00,72.1,69.1,29.74,NNW,338,1.1,2.5,90,0.00,,---,0.00,VWS V14.00,2013-08-29 12:22:00,
2013-08-29 08:28:00,72.1,68.7,29.74,NNW,338,3.4,3.4,89,0.00,,---,0.00,VWS V14.00,2013-08-29 12:28:00,
2013-08-29 08:33:00,72.1,68.7,29.76,SSE,158,1.6,2.7,89,0.04,,---,0.04,VWS V14.00,2013-08-29 12:33:00,
2013-08-29 08:39:00,72.0,68.2,29.76,ESE,112,1.1,2.0,88,0.04,,---,0.04,VWS V14.00,2013-08-29 12:39:00,
2013-08-29 08:44:00,72.0,68.2,29.76,ENE,68,1.6,2.0,88,0.04,,---,0.04,VWS V14.00,2013-08-29 12:44:00,
2013-08-29 08:50:00,72.0,67.9,29.76,SSE,158,0.0,2.0,87,0.04,,---,0.04,VWS V14.00,2013-08-29 12:50:00,
2013-08-29 08:56:00,72.0,67.9,29.76,ENE,68,2.0,2.7,87,0.04,,---,0.04,VWS V14.00,2013-08-29 12:56:00,
2013-08-29 09:01:00,71.8,67.4,29.76,SE,135,0.0,1.3,86,0.04,,---,0.04,VWS V14.00,2013-08-29 13:01:00,
2013-08-29 09:06:00,71.6,67.2,29.76,ESE,112,0.0,1.6,86,0.04,,---,0.04,VWS V14.00,2013-08-29 13:06:00,
2013-08-29 09:12:00,71.6,67.2,29.76,ENE,68,4.0,4.0,86,0.04,,---,0.04,VWS V14.00,2013-08-29 13:12:00,
2013-08-29 09:17:00,71.6,67.2,29.76,ENE,68,3.8,3.8,86,0.04,,---,0.04,VWS V14.00,2013-08-29 13:17:00,
2013-08-29 09:23:00,71.6,67.2,29.76,ESE,112,2.9,2.9,86,0.04,,---,0.04,VWS V14.00,2013-08-29 13:23:00,
2013-08-29 09:28:00,71.4,67.0,29.76,ENE,68,1.6,1.6,86,0.04,,---,0.04,VWS V14.00,2013-08-29 13:28:00,
2013-08-29 09:34:00,71.4,67.0,29.79,SE,135,0.0,2.9,86,0.00,,---,0.04,VWS V14.00,2013-08-29 13:34:00,
2013-08-29 09:40:00,71.4,66.7,29.79,ESE,112,3.6,3.6,85,0.00,,---,0.04,VWS V14.00,2013-08-29 13:40:00,
2013-08-29 09:45:00,71.6,66.9,29.79,NE,45,2.0,4.3,85,0.00,,---,0.04,VWS V14.00,2013-08-29 13:45:00,
2013-08-29 09:52:00,71.8,66.7,29.79,NE,45,5.8,5.8,84,0.00,,---,0.04,VWS V14.00,2013-08-29 13:52:00,
2013-08-29 09:57:00,72.0,66.9,29.79,WSW,248,1.6,2.0,84,0.00,,---,0.04,VWS V14.00,2013-08-29 13:57:00,
2013-08-29 10:03:00,72.1,67.0,29.79,NW,315,2.9,3.1,84,0.00,,---,0.04,VWS V14.00,2013-08-29 14:03:00,
2013-08-29 10:09:00,72.1,67.0,29.79,SE,135,2.2,2.2,84,0.00,,---,0.04,VWS V14.00,2013-08-29 14:09:00,
2013-08-29 10:14:00,72.3,67.2,29.79,ENE,68,6.0,6.0,84,0.00,,---,0.04,VWS V14.00,2013-08-29 14:14:00,
2013-08-29 10:20:00,72.9,67.4,29.79,ENE,68,4.3,4.3,83,0.00,,---,0.04,VWS V14.00,2013-08-29 14:20:00,
2013-08-29 10:25:00,73.0,67.2,29.79,ENE,68,3.1,6.5,82,0.00,,---,0.04,VWS V14.00,2013-08-29 14:25:00,
2013-08-29 10:30:00,72.9,67.1,29.79,SSE,158,1.1,4.7,82,0.00,,---,0.04,VWS V14.00,2013-08-29 14:30:00,
2013-08-29 10:36:00,73.0,66.9,29.79,NNE,22,3.1,3.6,81,0.00,,---,0.04,VWS V14.00,2013-08-29 14:36:00,
2013-08-29 10:42:00,73.2,67.1,29.79,ENE,68,4.9,4.9,81,0.00,,---,0.04,VWS V14.00,2013-08-29 14:42:00,
2013-08-29 10:48:00,73.2,67.1,29.79,NNE,22,2.5,2.5,81,0.00,,---,0.04,VWS V14.00,2013-08-29 14:48:00,
2013-08-29 10:53:00,73.4,66.5,29.79,NNE,22,5.8,5.8,79,0.00,,---,0.04,VWS V14.00,2013-08-29 14:53:00,
2013-08-29 10:58:00,73.6,67.0,29.79,SSE,158,2.5,8.1,80,0.00,,---,0.04,VWS V14.00,2013-08-29 14:58:00,
2013-08-29 11:04:00,73.6,66.7,29.79,ENE,68,6.3,6.3,79,0.00,,---,0.04,VWS V14.00,2013-08-29 15:04:00,
2013-08-29 11:09:00,73.8,67.2,29.79,East,90,3.4,4.0,80,0.00,,---,0.04,VWS V14.00,2013-08-29 15:09:00,
2013-08-29 11:15:00,74.1,66.8,29.79,ENE,68,2.0,2.7,78,0.00,,---,0.04,VWS V14.00,2013-08-29 15:15:00,
2013-08-29 11:20:00,74.5,66.4,29.79,NNE,22,3.1,7.2,76,0.00,,---,0.04,VWS V14.00,2013-08-29 15:20:00,
2013-08-29 11:26:00,74.3,64.3,29.79,East,90,6.0,11.0,71,0.00,,---,0.04,VWS V14.00,2013-08-29 15:26:00,
2013-08-29 11:33:00,74.3,66.2,29.79,NE,45,6.0,6.0,76,0.00,,---,0.04,VWS V14.00,2013-08-29 15:33:00,
2013-08-29 11:38:00,74.1,66.1,29.79,NE,45,5.4,5.4,76,0.00,,---,0.04,VWS V14.00,2013-08-29 15:38:00,
2013-08-29 11:44:00,74.1,66.1,29.79,ESE,112,1.6,6.0,76,0.00,,---,0.04,VWS V14.00,2013-08-29 15:44:00,
2013-08-29 11:50:00,73.9,65.9,29.79,NE,45,4.3,4.3,76,0.00,,---,0.04,VWS V14.00,2013-08-29 15:50:00,
2013-08-29 11:55:00,73.8,66.1,29.79,NNW,338,1.6,3.4,77,0.00,,---,0.04,VWS V14.00,2013-08-29 15:55:00,
2013-08-29 12:00:00,74.1,66.5,29.79,ENE,68,4.9,4.9,77,0.00,,---,0.04,VWS V14.00,2013-08-29 16:00:00,
2013-08-29 12:06:00,75.2,66.7,29.79,SSE,158,1.3,4.7,75,0.00,,---,0.04,VWS V14.00,2013-08-29 16:06:00,
2013-08-29 12:12:00,75.7,65.3,29.79,ENE,68,5.8,5.8,70,0.00,,---,0.04,VWS V14.00,2013-08-29 16:12:00,
2013-08-29 12:17:00,76.1,65.6,29.79,ESE,112,3.1,6.5,70,0.00,,---,0.04,VWS V14.00,2013-08-29 16:17:00,
2013-08-29 12:23:00,76.5,65.5,29.79,NNW,338,8.5,8.5,69,0.00,,---,0.04,VWS V14.00,2013-08-29 16:23:00,
2013-08-29 12:28:00,77.4,66.8,29.79,SE,135,2.9,3.8,70,0.00,,---,0.04,VWS V14.00,2013-08-29 16:28:00,
2013-08-29 12:34:00,77.4,66.8,29.79,South,180,3.6,3.6,70,0.00,,---,0.04,VWS V14.00,2013-08-29 16:34:00,
2013-08-29 12:39:00,77.5,66.6,29.79,ESE,112,3.6,3.6,69,0.00,,---,0.04,VWS V14.00,2013-08-29 16:39:00,
2013-08-29 12:44:00,78.4,67.4,29.79,ENE,68,3.1,3.1,69,0.00,,---,0.04,VWS V14.00,2013-08-29 16:44:00,
2013-08-29 12:49:00,78.1,66.7,29.79,NE,45,1.6,2.0,68,0.00,,---,0.04,VWS V14.00,2013-08-29 16:49:00,
2013-08-29 12:55:00,78.1,65.8,29.79,ENE,68,3.6,10.7,66,0.00,,---,0.04,VWS V14.00,2013-08-29 16:55:00,
2013-08-29 13:00:00,79.0,67.1,29.79,ESE,112,2.2,3.4,67,0.00,,---,0.04,VWS V14.00,2013-08-29 17:00:00,
2013-08-29 13:05:00,79.7,66.9,29.79,West,270,2.5,6.0,65,0.00,,---,0.04,VWS V14.00,2013-08-29 17:05:00,
2013-08-29 13:10:00,79.9,67.5,29.79,SE,135,2.9,2.9,66,0.00,,---,0.04,VWS V14.00,2013-08-29 17:10:00,
2013-08-29 13:15:00,79.9,66.6,29.79,SSE,158,1.1,3.1,64,0.00,,---,0.04,VWS V14.00,2013-08-29 17:15:00,
2013-08-29 13:21:00,80.1,66.8,29.79,East,90,2.5,2.7,64,0.00,,---,0.04,VWS V14.00,2013-08-29 17:21:00,
2013-08-29 13:26:00,79.5,66.3,29.79,East,90,3.8,6.0,64,0.00,,---,0.04,VWS V14.00,2013-08-29 17:26:00,
2013-08-29 13:32:00,78.6,65.0,29.79,NNE,22,2.2,3.1,63,0.00,,---,0.04,VWS V14.00,2013-08-29 17:32:00,
2013-08-29 13:38:00,78.4,65.7,29.79,NNE,22,2.7,2.7,65,0.00,,---,0.04,VWS V14.00,2013-08-29 17:38:00,
2013-08-29 13:44:00,78.3,65.5,29.79,ENE,68,3.6,7.2,65,0.00,,---,0.04,VWS V14.00,2013-08-29 17:44:00,
2013-08-29 13:50:00,77.7,65.0,29.79,ENE,68,2.9,2.9,65,0.00,,---,0.04,VWS V14.00,2013-08-29 17:50:00,
2013-08-29 13:55:00,77.4,64.7,29.79,East,90,1.6,6.0,65,0.00,,---,0.04,VWS V14.00,2013-08-29 17:55:00,
2013-08-29 14:00:00,77.7,65.5,29.79,SSE,158,2.7,2.7,66,0.00,,---,0.04,VWS V14.00,2013-08-29 18:00:00,
2013-08-29 14:06:00,77.9,65.6,29.79,South,180,2.0,2.0,66,0.00,,---,0.04,VWS V14.00,2013-08-29 18:06:00,
2013-08-29 14:12:00,77.4,64.7,29.79,SSE,158,1.3,2.5,65,0.00,,---,0.04,VWS V14.00,2013-08-29 18:12:00,
2013-08-29 14:18:00,77.5,64.9,29.79,ESE,112,2.7,2.7,65,0.00,,---,0.04,VWS V14.00,2013-08-29 18:18:00,
2013-08-29 14:23:00,77.7,64.1,29.79,ENE,68,3.6,3.6,63,0.00,,---,0.04,VWS V14.00,2013-08-29 18:23:00,
2013-08-29 14:28:00,78.3,66.0,29.79,SSE,158,6.5,6.5,66,0.00,,---,0.04,VWS V14.00,2013-08-29 18:28:00,
2013-08-29 14:34:00,78.3,65.1,29.79,SSW,202,0.0,0.0,64,0.00,,---,0.04,VWS V14.00,2013-08-29 18:34:00,
2013-08-29 14:39:00,79.7,66.0,29.79,SE,135,1.3,3.1,63,0.00,,---,0.04,VWS V14.00,2013-08-29 18:39:00,
2013-08-29 14:45:00,80.1,65.9,29.79,ESE,112,2.5,3.4,62,0.00,,---,0.04,VWS V14.00,2013-08-29 18:45:00,
2013-08-29 14:51:00,80.1,66.3,29.79,ESE,112,0.0,2.7,63,0.00,,---,0.04,VWS V14.00,2013-08-29 18:51:00,
2013-08-29 14:56:00,80.2,65.1,29.79,ESE,112,1.3,1.3,60,0.00,,---,0.04,VWS V14.00,2013-08-29 18:56:00,
2013-08-29 15:02:00,78.8,61.8,29.79,ENE,68,3.6,3.6,56,0.00,,---,0.04,VWS V14.00,2013-08-29 19:02:00,
2013-08-29 15:08:00,79.0,64.4,29.79,South,180,1.3,1.3,61,0.00,,---,0.04,VWS V14.00,2013-08-29 19:08:00,
2013-08-29 15:14:00,79.7,65.1,29.79,ENE,68,4.0,4.0,61,0.00,,---,0.04,VWS V14.00,2013-08-29 19:14:00,
2013-08-29 15:19:00,80.1,65.4,29.79,ENE,68,3.4,4.9,61,0.00,,---,0.04,VWS V14.00,2013-08-29 19:19:00,
2013-08-29 15:25:00,80.1,64.9,29.79,NNE,22,2.9,2.9,60,0.00,,---,0.04,VWS V14.00,2013-08-29 19:25:00,
2013-08-29 15:31:00,79.9,65.7,29.79,SSE,158,1.1,1.1,62,0.00,,---,0.04,VWS V14.00,2013-08-29 19:31:00,
2013-08-29 15:37:00,80.1,64.9,29.79,SSE,158,2.2,2.2,60,0.00,,---,0.04,VWS V14.00,2013-08-29 19:37:00,
2013-08-29 15:43:00,80.1,64.9,29.79,SSE,158,0.9,2.2,60,0.00,,---,0.04,VWS V14.00,2013-08-29 19:43:00,
2013-08-29 15:48:00,80.2,66.1,29.79,SSW,202,2.7,2.7,62,0.00,,---,0.04,VWS V14.00,2013-08-29 19:48:00,
2013-08-29 15:53:00,79.3,65.2,29.79,SSE,158,2.5,2.5,62,0.00,,---,0.04,VWS V14.00,2013-08-29 19:53:00,
2013-08-29 15:59:00,79.9,65.2,29.79,SSW,202,2.5,2.5,61,0.00,,---,0.04,VWS V14.00,2013-08-29 19:59:00,
2013-08-29 16:04:00,79.9,65.7,29.79,NNE,22,3.8,3.8,62,0.00,,---,0.04,VWS V14.00,2013-08-29 20:04:00,
2013-08-29 16:09:00,79.2,65.0,29.79,WNW,292,3.8,9.8,62,0.00,,---,0.04,VWS V14.00,2013-08-29 20:09:00,
2013-08-29 16:15:00,79.0,64.9,29.79,ENE,68,4.0,4.0,62,0.00,,---,0.04,VWS V14.00,2013-08-29 20:15:00,
2013-08-29 16:20:00,79.0,65.3,29.79,ESE,112,1.3,2.2,63,0.00,,---,0.04,VWS V14.00,2013-08-29 20:20:00,
2013-08-29 16:26:00,78.6,65.0,29.79,SE,135,1.3,2.0,63,0.00,,---,0.04,VWS V14.00,2013-08-29 20:26:00,
2013-08-29 16:31:00,78.4,65.3,29.79,SSW,202,2.7,2.7,64,0.00,,---,0.04,VWS V14.00,2013-08-29 20:31:00,
2013-08-29 16:37:00,78.1,64.9,29.79,ESE,112,2.9,2.9,64,0.00,,---,0.04,VWS V14.00,2013-08-29 20:37:00,
2013-08-29 16:43:00,78.3,65.1,29.79,ENE,68,3.8,3.8,64,0.00,,---,0.04,VWS V14.00,2013-08-29 20:43:00,
2013-08-29 16:48:00,77.7,64.6,29.76,ESE,112,1.1,2.5,64,0.00,,---,0.04,VWS V14.00,2013-08-29 20:48:00,
2013-08-29 16:53:00,77.7,65.0,29.76,SSW,202,1.3,3.6,65,0.00,,---,0.04,VWS V14.00,2013-08-29 20:53:00,
2013-08-29 16:59:00,78.1,65.4,29.76,ESE,112,0.0,1.1,65,0.00,,---,0.04,VWS V14.00,2013-08-29 20:59:00,
2013-08-29 17:04:00,78.3,65.1,29.76,East,90,5.4,5.4,64,0.00,,---,0.04,VWS V14.00,2013-08-29 21:04:00,
2013-08-29 17:10:00,78.1,65.4,29.76,SSW,202,1.3,4.0,65,0.00,,---,0.04,VWS V14.00,2013-08-29 21:10:00,
2013-08-29 17:16:00,77.7,65.0,29.76,SE,135,1.3,2.7,65,0.00,,---,0.04,VWS V14.00,2013-08-29 21:16:00,
2013-08-29 17:21:00,77.5,65.3,29.76,East,90,1.6,2.2,66,0.00,,---,0.04,VWS V14.00,2013-08-29 21:21:00,
2013-08-29 17:26:00,77.7,65.0,29.76,SSW,202,1.6,2.7,65,0.00,,---,0.04,VWS V14.00,2013-08-29 21:26:00,
2013-08-29 17:32:00,77.5,64.9,29.79,ENE,68,0.9,0.9,65,0.00,,---,0.04,VWS V14.00,2013-08-29 21:32:00,
2013-08-29 17:37:00,77.4,65.1,29.79,SSW,202,0.0,0.0,66,0.00,,---,0.04,VWS V14.00,2013-08-29 21:37:00,
2013-08-29 17:42:00,77.0,64.8,29.79,SE,135,3.4,3.4,66,0.00,,---,0.04,VWS V14.00,2013-08-29 21:42:00,
2013-08-29 17:47:00,77.2,64.9,29.79,SSE,158,0.0,1.6,66,0.00,,---,0.04,VWS V14.00,2013-08-29 21:47:00,
2013-08-29 17:53:00,77.0,65.2,29.79,SSE,158,1.1,2.0,67,0.00,,---,0.04,VWS V14.00,2013-08-29 21:53:00,
2013-08-29 17:58:00,77.0,65.2,29.79,WSW,248,0.9,1.3,67,0.00,,---,0.04,VWS V14.00,2013-08-29 21:58:00,
2013-08-29 18:03:00,76.6,65.3,29.76,ENE,68,2.0,2.0,68,0.00,,---,0.04,VWS V14.00,2013-08-29 22:03:00,
2013-08-29 18:09:00,76.6,65.3,29.76,SSE,158,0.0,2.9,68,0.00,,---,0.04,VWS V14.00,2013-08-29 22:09:00,
2013-08-29 18:14:00,76.5,64.7,29.76,SSW,202,0.0,2.9,67,0.00,,---,0.04,VWS V14.00,2013-08-29 22:14:00,
2013-08-29 18:19:00,76.1,64.4,29.76,South,180,1.1,1.1,67,0.00,,---,0.04,VWS V14.00,2013-08-29 22:19:00,
2013-08-29 18:25:00,75.7,64.4,29.76,ESE,112,1.6,1.6,68,0.00,,---,0.04,VWS V14.00,2013-08-29 22:25:00,
2013-08-29 18:30:00,75.7,64.4,29.76,SSW,202,0.0,0.0,68,0.00,,---,0.04,VWS V14.00,2013-08-29 22:30:00,
2013-08-29 18:36:00,75.6,64.3,29.76,NE,45,2.0,2.0,68,0.00,,---,0.04,VWS V14.00,2013-08-29 22:36:00,
2013-08-29 18:41:00,75.2,64.3,29.76,ESE,112,1.1,1.1,69,0.00,,---,0.04,VWS V14.00,2013-08-29 22:41:00,
2013-08-29 18:47:00,75.0,64.6,29.79,ESE,112,0.0,0.0,70,0.00,,---,0.04,VWS V14.00,2013-08-29 22:47:00,
2013-08-29 18:53:00,74.7,64.2,29.79,ESE,112,0.9,0.9,70,0.00,,---,0.04,VWS V14.00,2013-08-29 22:53:00,
2013-08-29 18:58:00,74.5,64.1,29.79,ENE,68,1.1,1.1,70,0.00,,---,0.04,VWS V14.00,2013-08-29 22:58:00,
2013-08-29 19:03:00,74.1,63.7,29.79,ENE,68,0.0,1.1,70,0.00,,---,0.04,VWS V14.00,2013-08-29 23:03:00,
2013-08-29 19:09:00,73.8,63.4,29.79,ESE,112,0.9,0.9,70,0.00,,---,0.04,VWS V14.00,2013-08-29 23:09:00,
2013-08-29 19:15:00,73.6,63.6,29.79,NNE,22,0.0,0.0,71,0.00,,---,0.04,VWS V14.00,2013-08-29 23:15:00,
2013-08-29 19:20:00,73.0,63.9,29.79,NNE,22,0.0,0.0,73,0.00,,---,0.04,VWS V14.00,2013-08-29 23:20:00,
2013-08-29 19:26:00,72.9,63.3,29.79,East,90,0.0,0.0,72,0.00,,---,0.04,VWS V14.00,2013-08-29 23:26:00,
2013-08-29 19:32:00,72.9,64.1,29.79,East,90,0.0,0.0,74,0.00,,---,0.04,VWS V14.00,2013-08-29 23:32:00,
2013-08-29 19:37:00,72.7,63.9,29.79,East,90,0.0,0.0,74,0.00,,---,0.04,VWS V14.00,2013-08-29 23:37:00,
2013-08-29 19:42:00,72.5,64.1,29.79,East,90,0.0,0.0,75,0.00,,---,0.04,VWS V14.00,2013-08-29 23:42:00,
2013-08-29 19:48:00,72.3,64.0,29.79,East,90,0.0,0.0,75,0.00,,---,0.04,VWS V14.00,2013-08-29 23:48:00,
2013-08-29 19:54:00,72.3,64.3,29.79,East,90,0.0,0.0,76,0.00,,---,0.04,VWS V14.00,2013-08-29 23:54:00,
2013-08-29 19:59:00,72.0,64.0,29.79,East,90,0.0,0.0,76,0.00,,---,0.04,VWS V14.00,2013-08-29 23:59:00,
2013-08-29 20:04:00,71.6,64.0,29.79,ESE,112,1.1,1.1,77,0.00,,---,0.04,VWS V14.00,2013-08-30 00:04:00,
2013-08-29 20:10:00,71.4,64.2,29.79,ESE,112,0.0,0.0,78,0.00,,---,0.04,VWS V14.00,2013-08-30 00:10:00,
2013-08-29 20:17:00,71.6,64.4,29.79,ESE,112,0.0,0.0,78,0.00,,---,0.04,VWS V14.00,2013-08-30 00:17:00,
2013-08-29 20:22:00,71.4,64.2,29.79,ESE,112,0.0,0.0,78,0.00,,---,0.04,VWS V14.00,2013-08-30 00:22:00,
2013-08-29 20:27:00,71.4,64.6,29.79,ESE,112,0.9,1.1,79,0.00,,---,0.04,VWS V14.00,2013-08-30 00:27:00,
2013-08-29 20:33:00,71.1,64.2,29.79,ESE,112,0.0,0.0,79,0.00,,---,0.04,VWS V14.00,2013-08-30 00:33:00,
2013-08-29 20:39:00,71.1,64.2,29.79,ESE,112,0.0,0.0,79,0.00,,---,0.04,VWS V14.00,2013-08-30 00:39:00,
2013-08-29 20:44:00,70.9,64.4,29.79,ESE,112,0.0,0.0,80,0.00,,---,0.04,VWS V14.00,2013-08-30 00:44:00,
2013-08-29 20:51:00,70.7,64.2,29.79,ESE,112,0.0,0.0,80,0.00,,---,0.04,VWS V14.00,2013-08-30 00:51:00,
2013-08-29 20:57:00,70.5,64.4,29.79,ESE,112,0.0,0.0,81,0.00,,---,0.04,VWS V14.00,2013-08-30 00:57:00,
2013-08-29 21:02:00,70.5,64.4,29.79,ESE,112,0.0,0.0,81,0.00,,---,0.04,VWS V14.00,2013-08-30 01:02:00,
2013-08-29 21:08:00,70.7,64.6,29.79,ESE,112,0.0,0.0,81,0.00,,---,0.04,VWS V14.00,2013-08-30 01:08:00,
2013-08-29 21:14:00,70.7,64.6,29.79,ENE,68,0.0,0.0,81,0.00,,---,0.04,VWS V14.00,2013-08-30 01:14:00,
2013-08-29 21:19:00,70.7,64.6,29.79,WNW,292,0.0,0.0,81,0.00,,---,0.04,VWS V14.00,2013-08-30 01:19:00,
2013-08-29 21:25:00,71.1,64.9,29.79,SSW,202,0.0,0.0,81,0.00,,---,0.04,VWS V14.00,2013-08-30 01:25:00,
2013-08-29 21:32:00,71.2,65.1,29.79,SSW,202,1.3,1.6,81,0.00,,---,0.04,VWS V14.00,2013-08-30 01:32:00,
2013-08-29 21:37:00,71.4,65.3,29.79,ESE,112,2.2,2.2,81,0.00,,---,0.04,VWS V14.00,2013-08-30 01:37:00,
2013-08-29 21:42:00,71.4,65.3,29.79,ENE,68,1.1,1.1,81,0.00,,---,0.04,VWS V14.00,2013-08-30 01:42:00,
2013-08-29 21:48:00,71.4,65.3,29.79,SSE,158,1.3,1.3,81,0.00,,---,0.04,VWS V14.00,2013-08-30 01:48:00,
2013-08-29 21:54:00,71.4,65.3,29.79,SSE,158,0.0,0.9,81,0.00,,---,0.04,VWS V14.00,2013-08-30 01:54:00,
2013-08-29 21:59:00,71.4,65.3,29.79,SSE,158,0.0,0.0,81,0.00,,---,0.04,VWS V14.00,2013-08-30 01:59:00,
2013-08-29 22:05:00,71.4,65.3,29.82,ENE,68,0.0,0.0,81,0.00,,---,0.04,VWS V14.00,2013-08-30 02:05:00,
2013-08-29 22:10:00,71.4,65.3,29.82,ENE,68,0.0,0.0,81,0.00,,---,0.04,VWS V14.00,2013-08-30 02:10:00,
2013-08-29 22:15:00,71.4,65.3,29.82,ESE,112,0.0,0.0,81,0.00,,---,0.04,VWS V14.00,2013-08-30 02:15:00,
2013-08-29 22:20:00,71.4,65.3,29.82,ESE,112,0.0,0.0,81,0.00,,---,0.04,VWS V14.00,2013-08-30 02:20:00,
2013-08-29 22:26:00,71.4,65.3,29.82,SSW,202,0.9,0.9,81,0.00,,---,0.04,VWS V14.00,2013-08-30 02:26:00,
2013-08-29 22:31:00,71.4,65.3,29.79,SSW,202,0.0,0.0,81,0.00,,---,0.04,VWS V14.00,2013-08-30 02:31:00,
2013-08-29 22:37:00,71.2,65.1,29.79,WSW,248,1.6,1.6,81,0.00,,---,0.04,VWS V14.00,2013-08-30 02:37:00,
2013-08-29 22:42:00,71.2,65.1,29.79,SSE,158,0.0,1.3,81,0.00,,---,0.04,VWS V14.00,2013-08-30 02:42:00,
2013-08-29 22:48:00,71.2,64.8,29.79,SSE,158,0.0,0.0,80,0.00,,---,0.04,VWS V14.00,2013-08-30 02:48:00,
2013-08-29 22:53:00,71.2,64.8,29.79,SSE,158,0.0,0.0,80,0.00,,---,0.04,VWS V14.00,2013-08-30 02:53:00,
2013-08-29 22:59:00,71.2,65.1,29.79,ESE,112,1.1,1.1,81,0.00,,---,0.04,VWS V14.00,2013-08-30 02:59:00,
2013-08-29 23:04:00,71.1,64.6,29.79,ESE,112,0.0,0.0,80,0.00,,---,0.04,VWS V14.00,2013-08-30 03:04:00,
2013-08-29 23:10:00,71.1,64.6,29.79,ENE,68,1.3,1.3,80,0.00,,---,0.04,VWS V14.00,2013-08-30 03:10:00,
2013-08-29 23:15:00,71.1,64.6,29.79,SE,135,0.0,0.0,80,0.00,,---,0.04,VWS V14.00,2013-08-30 03:15:00,
2013-08-29 23:22:00,71.1,64.6,29.79,SSW,202,0.0,0.0,80,0.00,,---,0.04,VWS V14.00,2013-08-30 03:22:00,
2013-08-29 23:27:00,70.9,64.4,29.79,NE,45,0.0,1.1,80,0.00,,---,0.04,VWS V14.00,2013-08-30 03:27:00,
2013-08-29 23:32:00,70.9,64.4,29.82,ESE,112,0.0,0.0,80,0.00,,---,0.04,VWS V14.00,2013-08-30 03:32:00,
2013-08-29 23:37:00,70.9,64.4,29.82,WNW,292,0.9,0.9,80,0.00,,---,0.04,VWS V14.00,2013-08-30 03:37:00,
2013-08-29 23:43:00,71.1,64.6,29.82,West,270,1.1,1.1,80,0.00,,---,0.04,VWS V14.00,2013-08-30 03:43:00,
2013-08-29 23:48:00,71.1,64.6,29.79,NE,45,0.0,0.0,80,0.00,,---,0.04,VWS V14.00,2013-08-30 03:48:00,
2013-08-29 23:54:00,71.1,64.6,29.79,WNW,292,0.9,0.9,80,0.00,,---,0.04,VWS V14.00,2013-08-30 03:54:00,
2013-08-29 23:59:00,70.9,64.4,29.79,NE,45,0.0,0.0,80,0.00,,---,0.00,VWS V14.00,2013-08-30 03:59:00,